Time;durP1;ratioP1;P1;durP2;ratioP2;P2;SDS_P1;SDS_P2;PMS_P1;PMS_P2;Temp;Humidity;BMP_temperature;BMP_pressure;BME280_temperature;BME280_humidity;BME280_pressure;Samples;Min_cycle;Max_cycle;Signal;HPM_P1;HPM_P2
2021/07/25 00:00:13;;;;;;;3.80;2.90;;;24.70;62.20;;;;;;5018015;28;20418;-62
2021/07/25 00:02:39;;;;;;;3.75;2.90;;;24.60;62.20;;;;;;5002327;28;20389;-60
2021/07/25 00:05:07;;;;;;;3.67;2.67;;;24.60;62.20;;;;;;5002824;28;20878;-60
2021/07/25 00:07:33;;;;;;;3.20;2.50;;;24.60;62.20;;;;;;5002521;28;20482;-60
2021/07/25 00:10:00;;;;;;;3.63;2.70;;;24.60;62.10;;;;;;5002644;28;20952;-60
2021/07/25 00:12:25;;;;;;;3.67;2.80;;;24.60;62.10;;;;;;5002774;28;21138;-59
2021/07/25 00:14:51;;;;;;;3.40;2.80;;;24.60;62.10;;;;;;5002097;28;20529;-60
2021/07/25 00:17:16;;;;;;;3.00;2.40;;;24.60;62.10;;;;;;5001408;28;20466;-59
2021/07/25 00:19:42;;;;;;;3.20;2.65;;;24.60;62.10;;;;;;4986872;28;20397;-60
2021/07/25 00:22:09;;;;;;;3.60;2.80;;;24.60;62.10;;;;;;4994517;28;20448;-60
2021/07/25 00:24:37;;;;;;;3.75;2.97;;;24.60;62.10;;;;;;4982196;28;20908;-60
2021/07/25 00:27:04;;;;;;;3.30;2.50;;;24.60;62.10;;;;;;4981269;28;20399;-60
2021/07/25 00:29:31;;;;;;;3.47;2.60;;;24.60;62.10;;;;;;4982312;28;20501;-60
2021/07/25 00:32:05;;;;;;;3.40;2.40;;;24.60;62.00;;;;;;4985885;28;20512;-60
2021/07/25 00:34:33;;;;;;;2.85;2.45;;;24.60;62.00;;;;;;4984288;28;20777;-63
2021/07/25 00:36:59;;;;;;;3.20;2.55;;;24.60;62.10;;;;;;4985276;28;20484;-62
2021/07/25 00:39:25;;;;;;;3.03;2.50;;;24.60;61.90;;;;;;4990560;28;20399;-62
2021/07/25 00:41:52;;;;;;;3.30;2.30;;;24.60;62.00;;;;;;4983643;28;21050;-62
2021/07/25 00:44:19;;;;;;;3.25;2.30;;;24.50;62.00;;;;;;4983744;28;20429;-62
2021/07/25 00:46:58;;;;;;;3.60;2.35;;;24.50;62.10;;;;;;4983438;28;20449;-62
2021/07/25 00:49:24;;;;;;;3.03;2.30;;;24.50;62.00;;;;;;4981482;28;20403;-62
2021/07/25 00:51:50;;;;;;;2.90;2.20;;;24.60;61.90;;;;;;4983136;28;20414;-61
2021/07/25 00:54:16;;;;;;;2.67;2.00;;;24.60;61.80;;;;;;4986493;28;20461;-62
2021/07/25 00:56:42;;;;;;;3.03;2.22;;;24.60;61.90;;;;;;4981977;28;20744;-62
2021/07/25 00:59:08;;;;;;;2.67;2.00;;;24.50;61.70;;;;;;4983549;28;20407;-60
2021/07/25 01:01:34;;;;;;;2.80;2.17;;;24.50;61.70;;;;;;4983277;28;20453;-60
2021/07/25 01:04:18;;;;;;;3.07;2.00;;;24.50;61.70;;;;;;4982157;28;20460;-60
2021/07/25 01:06:55;;;;;;;2.95;1.98;;;24.50;61.80;;;;;;4984132;28;20408;-60
2021/07/25 01:09:29;;;;;;;2.67;2.10;;;24.50;61.80;;;;;;4982634;28;20379;-60
2021/07/25 01:12:01;;;;;;;4.00;2.25;;;24.50;61.70;;;;;;4983169;28;20402;-60
2021/07/25 01:14:32;;;;;;;4.75;2.13;;;24.50;61.80;;;;;;4988048;28;20475;-60
2021/07/25 01:17:31;;;;;;;3.60;2.08;;;24.50;61.80;;;;;;4982043;28;20925;-60
2021/07/25 01:20:04;;;;;;;2.50;2.10;;;24.50;61.70;;;;;;4983318;28;20391;-60
2021/07/25 01:22:32;;;;;;;2.83;2.07;;;24.50;61.70;;;;;;4983063;28;20813;-60
2021/07/25 01:24:59;;;;;;;2.90;2.10;;;24.50;61.70;;;;;;4981126;28;20513;-60
2021/07/25 01:27:49;;;;;;;3.53;1.90;;;24.50;61.80;;;;;;4982831;28;20453;-60
2021/07/25 01:30:18;;;;;;;2.60;2.03;;;24.50;61.70;;;;;;4981956;28;20435;-60
2021/07/25 01:32:45;;;;;;;3.10;2.10;;;24.50;61.70;;;;;;4983597;28;20403;-60
2021/07/25 01:35:14;;;;;;;2.50;2.10;;;24.50;61.60;;;;;;4981280;28;20394;-59
2021/07/25 01:37:41;;;;;;;2.63;2.00;;;24.50;61.60;;;;;;4982819;28;20394;-60
2021/07/25 01:40:20;;;;;;;2.72;1.98;;;24.50;61.60;;;;;;4983064;28;20764;-60
2021/07/25 01:42:46;;;;;;;3.47;1.95;;;24.40;61.50;;;;;;4982979;28;20395;-60
2021/07/25 01:45:13;;;;;;;2.50;1.98;;;24.50;61.60;;;;;;4988866;28;20441;-59
2021/07/25 01:47:39;;;;;;;2.17;1.70;;;24.50;61.60;;;;;;4987662;28;20898;-60
2021/07/25 01:50:06;;;;;;;2.50;1.80;;;24.40;61.50;;;;;;4981301;28;20450;-60
2021/07/25 01:52:32;;;;;;;2.30;1.70;;;24.40;61.40;;;;;;4982972;28;20390;-60
2021/07/25 01:54:58;;;;;;;2.45;1.98;;;24.40;61.50;;;;;;4982783;28;20399;-59
2021/07/25 01:57:24;;;;;;;2.40;1.88;;;24.40;61.50;;;;;;4982645;28;20407;-60
2021/07/25 01:59:50;;;;;;;2.80;1.90;;;24.40;61.50;;;;;;4982866;28;20797;-60
2021/07/25 02:02:16;;;;;;;2.72;1.80;;;24.40;61.50;;;;;;4987895;28;20390;-60
2021/07/25 02:04:42;;;;;;;2.30;1.77;;;24.40;61.50;;;;;;4991188;28;20426;-60
2021/07/25 02:07:08;;;;;;;2.53;1.75;;;24.40;61.50;;;;;;4986694;28;20390;-60
2021/07/25 02:09:38;;;;;;;2.17;1.63;;;24.40;61.50;;;;;;4985940;28;21072;-60
2021/07/25 02:12:05;;;;;;;2.38;1.75;;;24.40;61.40;;;;;;4985727;28;21021;-60
2021/07/25 02:14:32;;;;;;;2.40;1.60;;;24.40;61.40;;;;;;4984721;28;20778;-60
2021/07/25 02:16:59;;;;;;;2.55;1.90;;;24.40;61.30;;;;;;4986607;28;20408;-60
2021/07/25 02:19:24;;;;;;;2.05;1.42;;;24.40;61.30;;;;;;4986003;28;20390;-60
2021/07/25 02:21:50;;;;;;;1.80;1.48;;;24.40;61.40;;;;;;4985943;28;20766;-60
2021/07/25 02:24:19;;;;;;;2.08;1.52;;;24.40;61.30;;;;;;4984868;28;20480;-60
2021/07/25 02:26:46;;;;;;;2.40;1.80;;;24.40;61.20;;;;;;4988183;28;20394;-60
2021/07/25 02:29:13;;;;;;;3.20;1.75;;;24.40;61.20;;;;;;4985917;28;20878;-60
2021/07/25 02:31:39;;;;;;;1.95;1.35;;;24.40;61.30;;;;;;4985624;28;20426;-60
2021/07/25 02:34:05;;;;;;;2.08;1.45;;;24.40;61.20;;;;;;4986088;28;20410;-60
2021/07/25 02:36:31;;;;;;;1.92;1.45;;;24.40;61.20;;;;;;4984767;28;20980;-60
2021/07/25 02:38:57;;;;;;;2.10;1.40;;;24.40;61.10;;;;;;4984267;28;20410;-59
2021/07/25 02:41:22;;;;;;;1.77;1.40;;;24.40;61.80;;;;;;4984155;28;20396;-60
2021/07/25 02:43:49;;;;;;;2.10;1.40;;;24.40;61.10;;;;;;4984387;28;20775;-60
2021/07/25 02:46:15;;;;;;;2.03;1.60;;;24.40;61.10;;;;;;4985279;28;20894;-60
2021/07/25 02:48:40;;;;;;;1.90;1.38;;;24.40;60.90;;;;;;4986474;28;20455;-60
2021/07/25 02:51:06;;;;;;;2.00;1.60;;;24.40;61.10;;;;;;4985196;28;20509;-60
2021/07/25 02:53:32;;;;;;;1.98;1.42;;;24.30;61.00;;;;;;4985192;28;20393;-60
2021/07/25 02:55:58;;;;;;;2.28;1.58;;;24.30;61.00;;;;;;4985689;28;20406;-60
2021/07/25 02:58:24;;;;;;;2.10;1.50;;;24.30;61.10;;;;;;4985257;28;20520;-60
2021/07/25 03:00:50;;;;;;;2.00;1.50;;;24.30;61.10;;;;;;4984251;28;20413;-59
2021/07/25 03:03:16;;;;;;;1.90;1.50;;;24.30;61.00;;;;;;4985139;28;20957;-60
2021/07/25 03:05:42;;;;;;;2.10;1.40;;;24.30;61.20;;;;;;4983809;28;20497;-60
2021/07/25 03:08:07;;;;;;;1.80;1.45;;;24.30;61.10;;;;;;4985582;28;21417;-60
2021/07/25 03:10:34;;;;;;;2.27;1.40;;;24.30;61.00;;;;;;4985363;28;20989;-60
2021/07/25 03:13:00;;;;;;;2.13;1.40;;;24.30;61.10;;;;;;4985162;28;20390;-60
2021/07/25 03:15:26;;;;;;;1.80;1.50;;;24.30;61.20;;;;;;4983244;28;20395;-60
2021/07/25 03:17:52;;;;;;;1.90;1.50;;;24.30;61.10;;;;;;4985454;28;20398;-60
2021/07/25 03:20:19;;;;;;;1.80;1.40;;;24.30;61.10;;;;;;4984012;28;20383;-59
2021/07/25 03:22:45;;;;;;;1.90;1.40;;;24.30;61.10;;;;;;4985144;28;20560;-59
2021/07/25 03:25:11;;;;;;;2.03;1.50;;;24.30;61.10;;;;;;4983831;28;20417;-60
2021/07/25 03:27:38;;;;;;;1.98;1.50;;;24.30;61.10;;;;;;4984649;28;20447;-60
2021/07/25 03:30:05;;;;;;;2.20;1.48;;;24.30;61.10;;;;;;4984926;28;20442;-60
2021/07/25 03:32:30;;;;;;;2.13;1.40;;;24.30;61.20;;;;;;4984781;28;20405;-60
2021/07/25 03:34:56;;;;;;;1.92;1.48;;;24.30;61.10;;;;;;4984744;28;20383;-60
2021/07/25 03:37:23;;;;;;;2.00;1.50;;;24.30;61.10;;;;;;4984737;28;20411;-60
2021/07/25 03:39:52;;;;;;;1.67;1.30;;;24.30;61.10;;;;;;4985682;28;20422;-60
2021/07/25 03:42:19;;;;;;;2.20;1.33;;;24.30;61.10;;;;;;4984601;28;20489;-60
2021/07/25 03:44:45;;;;;;;2.03;1.30;;;24.30;61.10;;;;;;4984741;28;20939;-60
2021/07/25 03:47:11;;;;;;;2.15;1.45;;;24.30;61.10;;;;;;4984871;28;20379;-60
2021/07/25 03:49:39;;;;;;;1.75;1.20;;;24.30;61.00;;;;;;4986301;28;20418;-60
2021/07/25 03:52:06;;;;;;;1.83;1.42;;;24.30;61.10;;;;;;4984679;28;20392;-60
2021/07/25 03:54:33;;;;;;;1.98;1.45;;;24.30;61.10;;;;;;4984107;28;21534;-60
2021/07/25 03:56:59;;;;;;;1.90;1.40;;;24.30;61.10;;;;;;4984150;28;20398;-60
2021/07/25 03:59:25;;;;;;;1.67;1.30;;;24.30;61.20;;;;;;4984052;28;20545;-60
2021/07/25 04:01:50;;;;;;;1.80;1.40;;;24.30;61.10;;;;;;4984533;28;20795;-60
2021/07/25 04:04:16;;;;;;;1.60;1.10;;;24.30;61.10;;;;;;4984530;28;21055;-59
2021/07/25 04:06:42;;;;;;;1.70;1.40;;;24.30;61.10;;;;;;4984427;28;20399;-59
2021/07/25 04:09:08;;;;;;;2.22;1.38;;;24.30;61.70;;;;;;4986147;28;20398;-60
2021/07/25 04:11:34;;;;;;;1.60;1.25;;;24.30;61.20;;;;;;4988215;28;20405;-60
2021/07/25 04:13:59;;;;;;;1.80;1.27;;;24.20;61.10;;;;;;4985071;28;20481;-60
2021/07/25 04:16:25;;;;;;;2.50;1.50;;;24.20;61.00;;;;;;4984135;28;20493;-60
2021/07/25 04:18:51;;;;;;;1.50;1.20;;;24.20;61.10;;;;;;4984118;28;20402;-60
2021/07/25 04:21:17;;;;;;;1.52;1.20;;;24.20;61.10;;;;;;4985822;28;20393;-59
2021/07/25 04:23:43;;;;;;;1.92;1.50;;;24.20;61.10;;;;;;4986101;28;20421;-60
2021/07/25 04:26:10;;;;;;;2.73;1.43;;;24.20;61.10;;;;;;4984568;28;20499;-60
2021/07/25 04:28:36;;;;;;;1.67;1.30;;;24.20;61.10;;;;;;4983666;28;20386;-60
2021/07/25 04:31:03;;;;;;;1.60;1.25;;;24.20;61.10;;;;;;4983692;28;21538;-60
2021/07/25 04:33:30;;;;;;;1.60;1.30;;;24.20;61.10;;;;;;4983505;28;20391;-60
2021/07/25 04:35:56;;;;;;;1.80;1.25;;;24.20;61.10;;;;;;4984427;28;20441;-60
2021/07/25 04:38:22;;;;;;;1.80;1.30;;;24.20;61.10;;;;;;4983887;28;20394;-60
2021/07/25 04:41:08;;;;;;;1.58;1.10;;;24.20;61.10;;;;;;4983856;28;20438;-60
2021/07/25 04:43:36;;;;;;;1.60;1.30;;;24.20;61.10;;;;;;4982943;28;20490;-60
2021/07/25 04:46:20;;;;;;;1.60;1.20;;;24.20;61.10;;;;;;4983413;28;20401;-60
2021/07/25 04:48:47;;;;;;;1.90;1.30;;;24.20;61.00;;;;;;4983279;28;20434;-60
2021/07/25 04:51:16;;;;;;;2.00;1.40;;;24.20;61.10;;;;;;4983208;28;20450;-60
2021/07/25 04:53:43;;;;;;;1.90;1.35;;;24.20;61.00;;;;;;4982899;28;20652;-60
2021/07/25 04:56:11;;;;;;;1.95;1.40;;;24.20;61.10;;;;;;4985668;28;20394;-60
2021/07/25 04:58:46;;;;;;;1.60;1.20;;;24.20;61.10;;;;;;4983775;28;20893;-60
2021/07/25 05:01:14;;;;;;;1.98;1.42;;;24.20;61.10;;;;;;4983613;28;20442;-59
2021/07/25 05:03:40;;;;;;;2.00;1.13;;;24.20;61.10;;;;;;4982989;28;20390;-60
2021/07/25 05:06:09;;;;;;;1.80;1.20;;;24.20;61.10;;;;;;4983773;28;20393;-60
2021/07/25 05:08:35;;;;;;;1.75;1.30;;;24.20;61.10;;;;;;4983309;28;20871;-60
2021/07/25 05:11:23;;;;;;;1.80;1.30;;;24.20;61.10;;;;;;4983435;28;20464;-60
2021/07/25 05:13:54;;;;;;;1.80;1.25;;;24.20;61.10;;;;;;4983387;28;20830;-60
2021/07/25 05:16:38;;;;;;;2.08;1.38;;;24.20;61.00;;;;;;4983306;28;20969;-60
2021/07/25 05:19:38;;;;;;;1.98;1.40;;;24.20;61.00;;;;;;4983296;28;20395;-60
2021/07/25 05:22:09;;;;;;;1.83;1.40;;;24.20;61.10;;;;;;4984012;28;20415;-59
2021/07/25 05:24:44;;;;;;;1.67;1.10;;;24.20;61.10;;;;;;4982765;28;20402;-60
2021/07/25 05:27:21;;;;;;;1.63;1.20;;;24.20;61.10;;;;;;4982428;28;20406;-61
2021/07/25 05:29:48;;;;;;;2.00;1.48;;;24.20;61.10;;;;;;4982737;28;20397;-60
2021/07/25 05:32:15;;;;;;;1.90;1.38;;;24.20;61.00;;;;;;4983118;28;20402;-60
2021/07/25 05:34:41;;;;;;;2.03;1.50;;;24.20;61.10;;;;;;4984543;28;20787;-60
2021/07/25 05:37:06;;;;;;;2.03;1.30;;;24.20;61.00;;;;;;4987134;28;20394;-60
2021/07/25 05:39:32;;;;;;;1.70;1.27;;;24.20;61.10;;;;;;4986450;28;20394;-60
2021/07/25 05:41:58;;;;;;;1.90;1.17;;;24.20;61.10;;;;;;4990886;28;20500;-60
2021/07/25 05:44:23;;;;;;;1.80;1.37;;;24.20;61.10;;;;;;4988380;28;20426;-60
2021/07/25 05:46:49;;;;;;;1.58;1.17;;;24.20;61.10;;;;;;4989468;28;20401;-60
2021/07/25 05:49:15;;;;;;;1.47;1.20;;;24.20;61.10;;;;;;4987734;28;21154;-60
2021/07/25 05:51:40;;;;;;;1.88;1.30;;;24.20;61.10;;;;;;4993529;28;20400;-59
2021/07/25 05:54:06;;;;;;;1.77;1.10;;;24.20;61.10;;;;;;4986921;28;20398;-60
2021/07/25 05:56:31;;;;;;;1.77;1.30;;;24.20;61.10;;;;;;4986463;28;20390;-60
2021/07/25 05:58:57;;;;;;;2.55;1.40;;;24.20;61.20;;;;;;4986959;28;20391;-59
2021/07/25 06:01:23;;;;;;;3.07;1.50;;;24.20;58.80;;;;;;4985893;28;20430;-60
2021/07/25 06:03:49;;;;;;;2.80;1.45;;;24.20;59.30;;;;;;4986446;28;20410;-60
2021/07/25 06:06:15;;;;;;;2.83;1.45;;;24.20;60.00;;;;;;4986319;28;20819;-60
2021/07/25 06:08:41;;;;;;;2.88;1.50;;;24.20;59.20;;;;;;4985843;28;20425;-60
2021/07/25 06:11:07;;;;;;;3.30;1.70;;;24.20;59.70;;;;;;4994508;28;20498;-64
2021/07/25 06:13:32;;;;;;;2.30;1.40;;;24.20;59.70;;;;;;4987347;28;20754;-59
2021/07/25 06:15:58;;;;;;;2.83;1.60;;;24.30;59.90;;;;;;4986655;28;20398;-60
2021/07/25 06:18:24;;;;;;;3.45;1.52;;;24.30;60.00;;;;;;4988096;28;20448;-59
2021/07/25 06:20:49;;;;;;;6.20;1.67;;;24.20;59.90;;;;;;4988981;28;20507;-60
2021/07/25 06:23:15;;;;;;;4.07;1.73;;;24.30;60.30;;;;;;4990190;28;20410;-60
2021/07/25 06:25:41;;;;;;;5.10;1.65;;;24.30;60.20;;;;;;4985824;28;20421;-59
2021/07/25 06:28:07;;;;;;;3.60;1.67;;;24.30;60.40;;;;;;4984882;28;20394;-60
2021/07/25 06:30:33;;;;;;;4.68;1.65;;;24.30;60.40;;;;;;4989899;28;20569;-60
2021/07/25 06:33:02;;;;;;;3.83;1.50;;;24.40;60.50;;;;;;4989299;28;20400;-59
2021/07/25 06:35:35;;;;;;;2.53;1.50;;;24.40;60.60;;;;;;4985608;28;20399;-60
2021/07/25 06:38:05;;;;;;;3.45;1.60;;;24.40;60.90;;;;;;4986242;28;20397;-60
2021/07/25 06:40:32;;;;;;;3.25;1.70;;;24.50;61.10;;;;;;4986257;28;20394;-59
2021/07/25 06:42:59;;;;;;;3.05;1.63;;;24.50;60.90;;;;;;4985759;28;20390;-60
2021/07/25 06:45:26;;;;;;;4.50;1.83;;;24.50;61.00;;;;;;4985451;28;20422;-59
2021/07/25 06:47:52;;;;;;;3.92;1.80;;;24.60;61.30;;;;;;4984819;28;20398;-61
2021/07/25 06:50:21;;;;;;;4.38;1.70;;;24.50;61.20;;;;;;4985210;28;20426;-59
2021/07/25 06:52:48;;;;;;;4.35;1.70;;;24.50;61.40;;;;;;4985241;28;20759;-60
2021/07/25 06:55:14;;;;;;;3.78;1.85;;;24.50;61.30;;;;;;4985632;28;20444;-59
2021/07/25 06:57:41;;;;;;;3.63;1.58;;;24.60;61.20;;;;;;4986273;28;20492;-60
2021/07/25 07:00:07;;;;;;;4.60;1.67;;;24.60;61.20;;;;;;4986575;28;20837;-60
2021/07/25 07:02:53;;;;;;;3.22;1.67;;;24.60;61.00;;;;;;4985730;28;20386;-60
2021/07/25 07:05:30;;;;;;;4.13;1.90;;;24.60;61.00;;;;;;4985279;28;20514;-60
2021/07/25 07:07:59;;;;;;;3.65;1.80;;;24.60;60.90;;;;;;4986624;28;20390;-60
2021/07/25 07:10:27;;;;;;;2.75;1.65;;;24.60;60.80;;;;;;4985033;28;20398;-59
2021/07/25 07:12:54;;;;;;;3.30;1.80;;;24.60;60.70;;;;;;4985387;28;20438;-60
2021/07/25 07:15:21;;;;;;;4.22;1.90;;;24.60;60.80;;;;;;4990105;28;20435;-60
2021/07/25 07:17:49;;;;;;;3.72;2.00;;;24.70;60.70;;;;;;4984501;28;20529;-60
2021/07/25 07:20:14;;;;;;;2.95;1.90;;;24.60;60.80;;;;;;4984240;28;20956;-60
2021/07/25 07:22:40;;;;;;;3.58;1.58;;;24.70;60.50;;;;;;4985077;28;20406;-60
2021/07/25 07:25:07;;;;;;;3.10;1.57;;;24.70;60.30;;;;;;4987487;28;20475;-60
2021/07/25 07:27:34;;;;;;;2.92;1.60;;;24.70;60.10;;;;;;4984157;28;20395;-60
2021/07/25 07:30:01;;;;;;;4.15;1.60;;;24.70;60.10;;;;;;4984496;28;20405;-62
2021/07/25 07:32:27;;;;;;;3.50;1.70;;;24.60;60.40;;;;;;4984934;28;20403;-62
2021/07/25 07:34:52;;;;;;;3.40;1.60;;;24.60;60.40;;;;;;4984818;28;20453;-60
2021/07/25 07:37:18;;;;;;;5.40;1.77;;;24.60;61.00;;;;;;4984619;28;20398;-60
2021/07/25 07:39:44;;;;;;;4.77;1.90;;;24.60;60.60;;;;;;4989518;28;20407;-60
2021/07/25 07:42:11;;;;;;;4.18;2.00;;;24.50;60.60;;;;;;4985146;28;20469;-60
2021/07/25 07:44:38;;;;;;;4.95;2.00;;;24.60;60.80;;;;;;4983637;28;20425;-60
2021/07/25 07:47:04;;;;;;;3.72;1.80;;;24.50;61.20;;;;;;4986115;28;20483;-60
2021/07/25 07:49:30;;;;;;;3.60;1.90;;;24.60;61.60;;;;;;4990539;28;20413;-60
2021/07/25 07:51:56;;;;;;;2.93;1.60;;;24.60;61.10;;;;;;4987356;28;20410;-60
2021/07/25 07:54:21;;;;;;;3.95;1.75;;;24.60;61.10;;;;;;4984019;28;20405;-60
2021/07/25 07:56:47;;;;;;;8.53;2.13;;;24.60;60.90;;;;;;4982577;28;20402;-60
2021/07/25 07:59:13;;;;;;;4.72;2.00;;;24.60;60.80;;;;;;4983017;28;20461;-60
2021/07/25 08:01:39;;;;;;;6.07;2.10;;;24.60;60.90;;;;;;4985159;28;20386;-60
2021/07/25 08:04:04;;;;;;;3.47;1.85;;;24.50;60.80;;;;;;4987169;28;20965;-60
2021/07/25 08:06:30;;;;;;;5.10;1.67;;;24.50;60.70;;;;;;4986374;28;20422;-60
2021/07/25 08:08:55;;;;;;;4.63;1.88;;;24.50;60.60;;;;;;4983950;28;20375;-60
2021/07/25 08:11:21;;;;;;;4.97;1.80;;;24.50;60.60;;;;;;4982948;28;20402;-61
2021/07/25 08:13:47;;;;;;;3.73;1.70;;;24.40;60.70;;;;;;4982170;28;20464;-60
2021/07/25 08:16:13;;;;;;;2.97;1.65;;;24.50;60.70;;;;;;4982848;28;20398;-60
2021/07/25 08:18:46;;;;;;;6.85;1.70;;;24.50;60.70;;;;;;5079335;27;20363;-61
2021/07/25 08:21:11;;;;;;;4.30;1.80;;;24.50;60.70;;;;;;5078342;28;20398;-61
2021/07/25 08:23:37;;;;;;;3.80;1.80;;;24.50;60.80;;;;;;5078622;28;20399;-61
2021/07/25 08:26:03;;;;;;;4.87;1.80;;;24.50;60.70;;;;;;5079341;28;20394;-61
2021/07/25 08:28:30;;;;;;;4.80;1.90;;;24.50;60.70;;;;;;5077814;28;20427;-61
2021/07/25 08:30:56;;;;;;;4.57;1.85;;;24.50;60.80;;;;;;5064440;28;20395;-61
2021/07/25 08:33:22;;;;;;;3.08;1.70;;;24.60;60.80;;;;;;5079416;28;20436;-61
2021/07/25 08:35:47;;;;;;;3.90;1.67;;;24.60;60.80;;;;;;5062300;28;20394;-61
2021/07/25 08:38:13;;;;;;;3.03;1.77;;;24.50;60.80;;;;;;5070895;28;20410;-61
2021/07/25 08:40:40;;;;;;;4.50;1.90;;;24.60;60.70;;;;;;5070971;28;20391;-61
2021/07/25 08:43:07;;;;;;;3.93;2.13;;;24.60;60.80;;;;;;5070991;28;20391;-61
2021/07/25 08:45:36;;;;;;;4.25;1.83;;;24.60;60.80;;;;;;5070522;28;20391;-61
2021/07/25 08:48:16;;;;;;;2.88;1.70;;;24.60;60.80;;;;;;5078735;28;20425;-61
2021/07/25 08:51:03;;;;;;;3.97;1.90;;;24.60;60.80;;;;;;5068114;28;20432;-61
2021/07/25 08:53:34;;;;;;;3.38;1.50;;;24.60;60.80;;;;;;5079105;28;20398;-61
2021/07/25 08:56:00;;;;;;;3.65;1.65;;;24.60;60.80;;;;;;5079000;28;20391;-61
2021/07/25 08:58:28;;;;;;;2.70;1.48;;;24.60;60.70;;;;;;5071380;28;20415;-61
2021/07/25 09:00:55;;;;;;;3.35;1.70;;;24.60;60.80;;;;;;5078665;28;20759;-61
2021/07/25 09:03:22;;;;;;;3.22;1.60;;;24.60;60.80;;;;;;5064191;28;20403;-61
2021/07/25 09:05:48;;;;;;;2.63;1.63;;;24.60;60.80;;;;;;5077934;28;20409;-61
2021/07/25 09:08:14;;;;;;;3.17;1.73;;;24.60;60.80;;;;;;5076958;28;20448;-61
2021/07/25 09:10:40;;;;;;;3.47;1.73;;;24.60;60.80;;;;;;5077284;28;20728;-62
2021/07/25 09:13:06;;;;;;;3.85;1.70;;;24.60;60.80;;;;;;5070216;28;20391;-61
2021/07/25 09:15:34;;;;;;;3.08;1.60;;;24.60;60.70;;;;;;5078405;28;20403;-61
2021/07/25 09:18:02;;;;;;;4.10;1.80;;;24.60;60.80;;;;;;5062183;28;20434;-61
2021/07/25 09:20:36;;;;;;;3.50;1.70;;;24.60;60.80;;;;;;5078283;28;20758;-61
2021/07/25 09:23:04;;;;;;;4.22;2.15;;;24.60;60.80;;;;;;5078700;28;20466;-61
2021/07/25 09:25:30;;;;;;;4.72;2.35;;;24.60;60.70;;;;;;5063507;28;20386;-61
2021/07/25 09:27:58;;;;;;;4.35;2.20;;;24.60;60.70;;;;;;5076957;28;20437;-61
2021/07/25 09:30:28;;;;;;;5.22;2.40;;;24.60;60.80;;;;;;5050673;28;20470;-61
2021/07/25 09:32:56;;;;;;;6.88;2.53;;;24.70;60.80;;;;;;5064639;28;20398;-64
2021/07/25 09:35:26;;;;;;;5.27;2.30;;;24.60;60.80;;;;;;5052613;28;20400;-61
2021/07/25 09:38:11;;;;;;;5.68;2.42;;;24.70;60.80;;;;;;5063818;28;20419;-61
2021/07/25 09:40:38;;;;;;;5.47;2.45;;;24.70;60.80;;;;;;5062414;28;20446;-61
2021/07/25 09:43:07;;;;;;;5.43;2.42;;;24.70;60.80;;;;;;5063125;28;20395;-61
2021/07/25 09:45:33;;;;;;;4.73;2.40;;;24.70;60.80;;;;;;5052395;28;20388;-61
2021/07/25 09:48:09;;;;;;;4.32;2.40;;;24.70;60.80;;;;;;5064081;28;20422;-61
2021/07/25 09:50:35;;;;;;;4.88;2.22;;;24.70;60.80;;;;;;5052960;28;20403;-61
2021/07/25 09:53:01;;;;;;;4.50;2.13;;;24.70;60.70;;;;;;5064503;28;20392;-61
2021/07/25 09:55:30;;;;;;;4.97;2.10;;;24.70;60.70;;;;;;5063808;28;20391;-61
2021/07/25 09:57:55;;;;;;;3.90;2.20;;;24.70;60.70;;;;;;5063108;28;20477;-61
2021/07/25 10:00:21;;;;;;;4.07;2.03;;;24.70;60.70;;;;;;5064293;28;20383;-61
2021/07/25 10:02:47;;;;;;;4.03;2.13;;;24.70;60.70;;;;;;5064226;28;20391;-61
2021/07/25 10:05:18;;;;;;;3.83;2.10;;;24.70;61.20;;;;;;5064209;28;20895;-62
2021/07/25 10:07:45;;;;;;;4.13;1.67;;;24.70;60.60;;;;;;5063174;28;20895;-61
2021/07/25 10:10:13;;;;;;;2.60;1.65;;;24.70;60.60;;;;;;5063257;28;20391;-61
2021/07/25 10:12:40;;;;;;;3.60;1.80;;;24.70;60.60;;;;;;5063707;28;20894;-61
2021/07/25 10:15:09;;;;;;;4.53;1.95;;;24.70;60.60;;;;;;5063910;28;20953;-61
2021/07/25 10:17:41;;;;;;;3.27;1.67;;;24.70;60.60;;;;;;5063190;28;20832;-61
2021/07/25 10:20:08;;;;;;;3.15;1.70;;;24.80;60.60;;;;;;5063852;28;20387;-61
2021/07/25 10:22:36;;;;;;;2.50;1.58;;;24.80;60.60;;;;;;5064122;28;20398;-61
2021/07/25 10:25:09;;;;;;;3.00;1.83;;;24.80;60.60;;;;;;5063952;28;20388;-61
2021/07/25 10:27:35;;;;;;;3.10;1.73;;;24.80;60.60;;;;;;5063789;28;20400;-61
2021/07/25 10:30:07;;;;;;;3.05;1.80;;;24.80;60.60;;;;;;5063608;28;20372;-61
2021/07/25 10:32:36;;;;;;;2.37;1.57;;;24.80;60.60;;;;;;5063151;28;20392;-61
2021/07/25 10:35:07;;;;;;;3.05;1.70;;;24.80;60.60;;;;;;5049950;28;20392;-61
2021/07/25 10:37:36;;;;;;;3.03;1.70;;;24.80;60.70;;;;;;5052329;28;20420;-61
2021/07/25 10:40:03;;;;;;;2.47;1.55;;;24.80;60.70;;;;;;5062363;28;20384;-61
2021/07/25 10:42:32;;;;;;;3.30;1.52;;;24.80;60.70;;;;;;5063107;28;21296;-61
2021/07/25 10:44:58;;;;;;;3.65;1.80;;;24.80;60.70;;;;;;5063340;28;20815;-61
2021/07/25 10:47:25;;;;;;;2.97;1.60;;;24.80;60.70;;;;;;5063428;28;20423;-61
2021/07/25 10:50:06;;;;;;;2.92;1.55;;;24.80;60.70;;;;;;5062794;28;20375;-61
2021/07/25 10:52:55;;;;;;;2.90;1.63;;;24.80;60.60;;;;;;5063362;28;20388;-61
2021/07/25 10:55:40;;;;;;;2.63;1.50;;;24.80;60.70;;;;;;5063319;28;20470;-61
2021/07/25 10:58:08;;;;;;;2.47;1.70;;;24.80;60.60;;;;;;5062597;28;20478;-61
2021/07/25 11:00:42;;;;;;;2.20;1.50;;;24.80;60.60;;;;;;5049523;28;20417;-61
2021/07/25 11:03:08;;;;;;;2.40;1.60;;;24.80;60.60;;;;;;5062895;28;20417;-61
2021/07/25 11:05:54;;;;;;;2.38;1.60;;;24.80;60.60;;;;;;5062824;28;20388;-61
2021/07/25 11:08:34;;;;;;;3.40;1.70;;;24.80;60.50;;;;;;5062593;28;20747;-61
2021/07/25 11:11:00;;;;;;;2.20;1.60;;;24.90;60.60;;;;;;5062882;28;20392;-61
2021/07/25 11:13:41;;;;;;;2.55;1.60;;;24.90;60.50;;;;;;5062775;28;20631;-61
2021/07/25 11:16:32;;;;;;;2.65;1.70;;;24.80;60.40;;;;;;5062866;28;20429;-61
2021/07/25 11:19:19;;;;;;;3.92;1.70;;;24.90;60.50;;;;;;5062790;28;20404;-61
2021/07/25 11:21:44;;;;;;;2.47;1.60;;;24.90;60.50;;;;;;5054068;28;20404;-61
2021/07/25 11:24:19;;;;;;;3.00;1.70;;;24.90;60.40;;;;;;5062764;28;20391;-61
2021/07/25 11:26:49;;;;;;;2.33;1.55;;;24.90;60.20;;;;;;5062343;28;20889;-61
2021/07/25 11:29:33;;;;;;;5.68;1.80;;;24.90;60.40;;;;;;5061676;28;20376;-61
2021/07/25 11:32:00;;;;;;;7.03;1.80;;;24.90;61.00;;;;;;5061688;28;20395;-61
2021/07/25 11:34:31;;;;;;;6.05;2.10;;;25.00;62.00;;;;;;5060247;28;20380;-65
2021/07/25 11:37:02;;;;;;;3.10;1.80;;;25.10;62.40;;;;;;5059215;28;20429;-61
2021/07/25 11:39:28;;;;;;;5.45;2.33;;;25.10;62.00;;;;;;5062598;28;20391;-61
2021/07/25 11:41:53;;;;;;;20.52;12.82;;;25.10;61.90;;;;;;5061591;28;20387;-61
2021/07/25 11:44:30;;;;;;;96.15;51.25;;;25.20;62.00;;;;;;5056665;28;20398;-61
2021/07/25 11:46:57;;;;;;;70.40;38.28;;;25.20;61.80;;;;;;5059874;28;20396;-61
2021/07/25 11:49:29;;;;;;;143.18;72.65;;;25.20;62.00;;;;;;5054278;28;20755;-61
2021/07/25 11:52:07;;;;;;;102.07;53.40;;;25.20;62.30;;;;;;5058658;28;20396;-61
2021/07/25 11:54:41;;;;;;;90.60;46.97;;;25.30;62.30;;;;;;5059338;28;20467;-61
2021/07/25 11:57:13;;;;;;;84.40;45.78;;;25.30;62.20;;;;;;5061860;28;20410;-60
2021/07/25 11:59:40;;;;;;;79.70;45.05;;;25.40;62.50;;;;;;5061716;28;20665;-62
2021/07/25 12:02:08;;;;;;;87.05;45.47;;;25.40;62.50;;;;;;5061454;28;20376;-61
2021/07/25 12:04:39;;;;;;;75.65;40.83;;;25.40;62.20;;;;;;5061594;28;21220;-60
2021/07/25 12:07:15;;;;;;;72.22;39.50;;;25.40;62.50;;;;;;5062076;28;20798;-61
2021/07/25 12:09:52;;;;;;;63.75;36.65;;;25.40;62.40;;;;;;5061377;28;20886;-61
2021/07/25 12:12:19;;;;;;;66.13;35.20;;;25.50;62.70;;;;;;5059920;28;20905;-60
2021/07/25 12:14:47;;;;;;;60.22;33.40;;;25.70;63.00;;;;;;5060277;28;20383;-61
2021/07/25 12:17:13;;;;;;;52.40;30.45;;;25.80;61.90;;;;;;5061457;28;20899;-61
2021/07/25 12:19:43;;;;;;;55.00;29.92;;;25.80;62.00;;;;;;5059481;28;20673;-61
2021/07/25 12:22:18;;;;;;;50.92;29.13;;;25.80;62.00;;;;;;5062240;28;20767;-64
2021/07/25 12:24:46;;;;;;;49.20;27.85;;;25.80;62.80;;;;;;5054334;28;20399;-61
2021/07/25 12:27:33;;;;;;;44.92;26.42;;;25.80;63.30;;;;;;5061842;28;20375;-61
2021/07/25 12:30:09;;;;;;;45.65;26.10;;;25.80;63.30;;;;;;5061068;28;20408;-61
2021/07/25 12:32:35;;;;;;;44.85;24.58;;;25.80;63.20;;;;;;5061922;28;20868;-61
2021/07/25 12:35:13;;;;;;;42.17;24.90;;;25.80;63.70;;;;;;5061395;28;20387;-61
2021/07/25 12:37:44;;;;;;;40.90;22.77;;;25.80;63.00;;;;;;5061811;28;20423;-61
2021/07/25 12:40:11;;;;;;;38.40;22.92;;;25.80;64.50;;;;;;5061398;28;20399;-61
2021/07/25 12:42:39;;;;;;;37.83;23.00;;;25.80;63.80;;;;;;5061376;28;20384;-61
2021/07/25 12:45:33;;;;;;;38.55;23.10;;;25.80;63.50;;;;;;5052749;28;20388;-61
2021/07/25 12:48:28;;;;;;;35.85;21.02;;;25.80;64.60;;;;;;5060824;28;20433;-61
2021/07/25 12:53:38;;;;;;;36.38;20.40;;;25.80;63.50;;;;;;5061632;28;20441;-61
2021/07/25 12:56:07;;;;;;;33.95;19.70;;;25.80;63.60;;;;;;5061013;28;20384;-61